Time;durP1;ratioP1;P1;durP2;ratioP2;P2;SDS_P1;SDS_P2;PMS_P1;PMS_P2;Temp;Humidity;BMP_temperature;BMP_pressure;BME280_temperature;BME280_humidity;BME280_pressure;Samples;Min_cycle;Max_cycle;Signal;HPM_P1;HPM_P2
2021/06/24 00:01:01;;;;;;;2.60;1.30;;;;;;;;;;5119319;28;20236;-66
2021/06/24 00:03:30;;;;;;;1.03;1.00;;;;;;;;;;5119418;28;20220;-65
2021/06/24 00:05:58;;;;;;;5.13;1.33;;;;;;;;;;5119400;28;20209;-66
2021/06/24 00:08:27;;;;;;;1.40;1.30;;;;;;;;;;5118936;28;20220;-67
2021/06/24 00:10:56;;;;;;;1.13;1.10;;;;;;;;;;5119050;28;20197;-67
2021/06/24 00:13:24;;;;;;;1.63;1.10;;;;;;;;;;5114931;28;20205;-67
2021/06/24 00:15:52;;;;;;;0.90;0.90;;;;;;;;;;5119110;28;20656;-67
2021/06/24 00:18:20;;;;;;;1.33;1.10;;;;;;;;;;5119058;28;20235;-66
2021/06/24 00:20:48;;;;;;;1.17;1.10;;;;;;;;;;5118649;28;20225;-65
2021/06/24 00:23:16;;;;;;;1.33;1.23;;;;;;;;;;5119072;28;20221;-66
2021/06/24 00:25:45;;;;;;;1.63;1.07;;;;;;;;;;5118715;28;20239;-66
2021/06/24 00:28:15;;;;;;;5.13;1.77;;;;;;;;;;5118112;28;20212;-66
2021/06/24 00:30:43;;;;;;;1.43;1.10;;;;;;;;;;5118902;28;20603;-65
2021/06/24 00:33:11;;;;;;;0.80;0.80;;;;;;;;;;5118651;28;20260;-65
2021/06/24 00:35:39;;;;;;;2.40;1.10;;;;;;;;;;5118538;28;20240;-65
2021/06/24 00:38:07;;;;;;;1.20;1.10;;;;;;;;;;5118604;28;20559;-66
2021/06/24 00:40:36;;;;;;;1.20;0.90;;;;;;;;;;5118394;28;20236;-67
2021/06/24 00:43:07;;;;;;;1.43;1.33;;;;;;;;;;5117921;28;20614;-67
2021/06/24 00:45:35;;;;;;;1.00;1.00;;;;;;;;;;5117638;28;20204;-67
2021/06/24 00:48:03;;;;;;;3.87;1.10;;;;;;;;;;5118528;28;20215;-67
2021/06/24 00:50:31;;;;;;;2.93;0.90;;;;;;;;;;5118603;28;20717;-66
2021/06/24 00:52:59;;;;;;;2.77;0.80;;;;;;;;;;5118361;28;20263;-67
2021/06/24 00:55:40;;;;;;;1.97;1.10;;;;;;;;;;5118539;28;20670;-66
2021/06/24 00:58:10;;;;;;;1.97;0.87;;;;;;;;;;5117876;28;20216;-66
2021/06/24 01:00:38;;;;;;;1.63;1.00;;;;;;;;;;5118416;28;20223;-66
2021/06/24 01:03:06;;;;;;;0.90;0.90;;;;;;;;;;5118148;28;20228;-67
2021/06/24 01:05:35;;;;;;;3.23;1.23;;;;;;;;;;5118385;28;20234;-67
2021/06/24 01:08:03;;;;;;;2.43;0.97;;;;;;;;;;5118345;28;20246;-66
2021/06/24 01:10:31;;;;;;;1.17;0.90;;;;;;;;;;5118324;28;20214;-67
2021/06/24 01:12:59;;;;;;;1.70;0.93;;;;;;;;;;5113874;28;20245;-67
2021/06/24 01:15:28;;;;;;;0.63;0.63;;;;;;;;;;5118288;28;20204;-67
2021/06/24 01:17:56;;;;;;;0.83;0.70;;;;;;;;;;5118388;28;20201;-67
2021/06/24 01:20:24;;;;;;;0.90;0.90;;;;;;;;;;5118153;28;20209;-67
2021/06/24 01:22:53;;;;;;;1.70;0.90;;;;;;;;;;5118197;28;20695;-67
2021/06/24 01:25:22;;;;;;;0.70;0.70;;;;;;;;;;5117913;28;20212;-67
2021/06/24 01:27:54;;;;;;;3.33;0.80;;;;;;;;;;5117897;28;20205;-66
2021/06/24 01:30:22;;;;;;;1.13;1.10;;;;;;;;;;5117982;28;20280;-67
2021/06/24 01:32:51;;;;;;;3.47;1.10;;;;;;;;;;5117852;28;20229;-67
2021/06/24 01:35:21;;;;;;;3.13;1.03;;;;;;;;;;5117653;28;20270;-67
2021/06/24 01:37:49;;;;;;;0.90;0.90;;;;;;;;;;5117867;28;20254;-66
2021/06/24 01:40:17;;;;;;;0.90;0.90;;;;;;;;;;5118026;28;20740;-67
2021/06/24 01:42:46;;;;;;;1.00;1.00;;;;;;;;;;5117587;28;20236;-67
2021/06/24 01:45:14;;;;;;;3.17;1.00;;;;;;;;;;5117795;28;20258;-67
2021/06/24 01:47:41;;;;;;;1.90;0.90;;;;;;;;;;5118041;28;20578;-67
2021/06/24 01:50:10;;;;;;;2.47;1.10;;;;;;;;;;5118042;28;20652;-66
2021/06/24 01:52:37;;;;;;;1.10;1.10;;;;;;;;;;5117670;28;20270;-66
2021/06/24 01:55:05;;;;;;;2.53;1.20;;;;;;;;;;5117984;28;20564;-67
2021/06/24 01:57:33;;;;;;;0.87;0.83;;;;;;;;;;5121347;28;20208;-67
2021/06/24 02:00:04;;;;;;;1.17;1.13;;;;;;;;;;5121766;28;20255;-67
2021/06/24 02:02:32;;;;;;;1.17;1.10;;;;;;;;;;5121504;28;20595;-66
2021/06/24 02:05:00;;;;;;;2.20;1.10;;;;;;;;;;5121715;28;20205;-66
2021/06/24 02:07:28;;;;;;;1.40;1.07;;;;;;;;;;5121679;28;20655;-66
2021/06/24 02:09:55;;;;;;;1.33;1.23;;;;;;;;;;5121681;28;20321;-67
2021/06/24 02:12:23;;;;;;;1.00;1.00;;;;;;;;;;5116730;28;20217;-67
2021/06/24 02:14:51;;;;;;;2.27;1.00;;;;;;;;;;5121491;28;20563;-66
2021/06/24 02:17:20;;;;;;;1.30;1.20;;;;;;;;;;5121496;28;20226;-67
2021/06/24 02:19:47;;;;;;;2.87;1.07;;;;;;;;;;5121440;28;20234;-67
2021/06/24 02:22:16;;;;;;;1.07;0.93;;;;;;;;;;5121096;28;20258;-67
2021/06/24 02:24:44;;;;;;;1.07;1.07;;;;;;;;;;5121047;28;20205;-67
2021/06/24 02:27:11;;;;;;;1.00;1.00;;;;;;;;;;5120764;28;20216;-67
2021/06/24 02:29:39;;;;;;;1.03;0.90;;;;;;;;;;5121306;28;20223;-67
2021/06/24 02:32:07;;;;;;;3.63;1.40;;;;;;;;;;5120980;28;20246;-67
2021/06/24 02:34:36;;;;;;;1.83;1.10;;;;;;;;;;5121049;28;20208;-67
2021/06/24 02:37:04;;;;;;;1.87;1.40;;;;;;;;;;5120443;28;20275;-67
2021/06/24 02:39:32;;;;;;;1.53;1.43;;;;;;;;;;5120717;28;20204;-67
2021/06/24 02:41:59;;;;;;;1.50;1.40;;;;;;;;;;5120411;28;20696;-67
2021/06/24 02:44:27;;;;;;;4.80;1.73;;;;;;;;;;5120820;28;20209;-67
2021/06/24 02:46:55;;;;;;;3.60;1.30;;;;;;;;;;5120573;28;20254;-67
2021/06/24 02:49:23;;;;;;;1.40;1.30;;;;;;;;;;5120828;28;20211;-67
2021/06/24 02:51:52;;;;;;;1.50;1.20;;;;;;;;;;5120686;28;20225;-67
2021/06/24 02:54:19;;;;;;;1.27;1.17;;;;;;;;;;5120660;28;20205;-67
2021/06/24 02:56:47;;;;;;;2.33;1.43;;;;;;;;;;5120002;28;20277;-67
2021/06/24 02:59:15;;;;;;;2.50;1.30;;;;;;;;;;5120554;28;20205;-67
2021/06/24 03:01:43;;;;;;;2.47;1.23;;;;;;;;;;5120150;28;20229;-67
2021/06/24 03:04:10;;;;;;;2.80;1.10;;;;;;;;;;5120138;28;20275;-67
2021/06/24 03:06:38;;;;;;;1.13;0.97;;;;;;;;;;5120097;28;20209;-67
2021/06/24 03:09:07;;;;;;;1.37;1.07;;;;;;;;;;5119705;28;20201;-67
2021/06/24 03:11:35;;;;;;;1.33;1.27;;;;;;;;;;5118886;28;20224;-67
2021/06/24 03:14:03;;;;;;;1.20;1.10;;;;;;;;;;5116923;28;20259;-66
2021/06/24 03:16:31;;;;;;;1.63;1.20;;;;;;;;;;5120312;28;20234;-67
2021/06/24 03:18:58;;;;;;;1.33;1.23;;;;;;;;;;5119932;28;20209;-67
2021/06/24 03:21:26;;;;;;;2.43;0.90;;;;;;;;;;5120058;28;20567;-67
2021/06/24 03:23:54;;;;;;;2.33;1.47;;;;;;;;;;5120068;28;20205;-67
2021/06/24 03:26:23;;;;;;;3.77;1.03;;;;;;;;;;5119997;28;20204;-67
2021/06/24 03:28:51;;;;;;;1.80;0.93;;;;;;;;;;5119906;28;20205;-67
2021/06/24 03:31:18;;;;;;;1.97;1.20;;;;;;;;;;5119930;28;20232;-67
2021/06/24 03:33:46;;;;;;;2.07;1.10;;;;;;;;;;5120027;28;20284;-67
2021/06/24 03:36:14;;;;;;;1.40;1.30;;;;;;;;;;5119685;28;20268;-67
2021/06/24 03:38:44;;;;;;;1.20;1.10;;;;;;;;;;5119733;28;20204;-67
2021/06/24 03:41:12;;;;;;;2.17;1.23;;;;;;;;;;5120310;28;20205;-67
2021/06/24 03:43:41;;;;;;;1.47;1.00;;;;;;;;;;5119267;28;20228;-67
2021/06/24 03:46:09;;;;;;;3.63;1.10;;;;;;;;;;5119640;28;20287;-67
2021/06/24 03:48:37;;;;;;;2.00;1.13;;;;;;;;;;5119679;28;20660;-67
2021/06/24 03:51:05;;;;;;;2.10;1.77;;;;;;;;;;5119499;28;20256;-67
2021/06/24 03:53:34;;;;;;;1.30;1.17;;;;;;;;;;5119510;28;20207;-67
2021/06/24 03:56:01;;;;;;;2.23;1.20;;;;;;;;;;5119503;28;20231;-67
2021/06/24 03:58:29;;;;;;;1.30;1.20;;;;;;;;;;5119049;28;20215;-67
2021/06/24 04:00:58;;;;;;;2.40;1.47;;;;;;;;;;5119270;28;20200;-67
2021/06/24 04:03:26;;;;;;;2.50;1.70;;;;;;;;;;5119224;28;20228;-67
2021/06/24 04:05:54;;;;;;;1.50;1.30;;;;;;;;;;5119014;28;20209;-67
2021/06/24 04:08:21;;;;;;;2.30;1.30;;;;;;;;;;5119068;28;20247;-67
2021/06/24 04:11:02;;;;;;;1.30;1.20;;;;;;;;;;5119071;28;20284;-67
2021/06/24 04:13:50;;;;;;;1.77;1.63;;;;;;;;;;5114899;28;20193;-66
2021/06/24 04:16:19;;;;;;;1.40;1.20;;;;;;;;;;5119165;28;20561;-66
2021/06/24 04:18:47;;;;;;;1.03;1.03;;;;;;;;;;5118922;28;20266;-66
2021/06/24 04:21:15;;;;;;;4.83;1.67;;;;;;;;;;5119115;28;20232;-66
2021/06/24 04:23:42;;;;;;;3.97;1.73;;;;;;;;;;5118597;28;20325;-66
2021/06/24 04:26:10;;;;;;;2.97;1.10;;;;;;;;;;5118968;28;20561;-66
2021/06/24 04:28:38;;;;;;;1.73;0.70;;;;;;;;;;5118465;28;20660;-66
2021/06/24 04:31:06;;;;;;;2.40;0.80;;;;;;;;;;5118944;28;20274;-66
2021/06/24 04:33:36;;;;;;;1.10;0.90;;;;;;;;;;5118754;28;20660;-66
2021/06/24 04:36:04;;;;;;;4.80;1.00;;;;;;;;;;5118656;28;20240;-66
2021/06/24 04:38:31;;;;;;;3.03;0.90;;;;;;;;;;5118384;28;20230;-66
2021/06/24 04:40:59;;;;;;;0.60;0.60;;;;;;;;;;5118651;28;20648;-66
2021/06/24 04:43:27;;;;;;;0.63;0.60;;;;;;;;;;5118146;28;20228;-66
2021/06/24 04:45:54;;;;;;;0.50;0.50;;;;;;;;;;5118723;28;20205;-66
2021/06/24 04:48:22;;;;;;;0.80;0.70;;;;;;;;;;5118206;28;20227;-66
2021/06/24 04:50:51;;;;;;;0.93;0.80;;;;;;;;;;5118542;28;20206;-66
2021/06/24 04:53:19;;;;;;;0.50;0.50;;;;;;;;;;5110861;28;20217;-64
2021/06/24 04:55:47;;;;;;;0.67;0.67;;;;;;;;;;5118493;28;20204;-65
2021/06/24 04:58:14;;;;;;;0.77;0.77;;;;;;;;;;5117900;28;20208;-65
2021/06/24 05:00:42;;;;;;;1.67;0.70;;;;;;;;;;5118423;28;20204;-65
2021/06/24 05:03:11;;;;;;;3.10;0.70;;;;;;;;;;5118284;28;20246;-65
2021/06/24 05:05:40;;;;;;;1.03;0.60;;;;;;;;;;5118521;28;20264;-65
2021/06/24 05:08:13;;;;;;;0.87;0.87;;;;;;;;;;5118683;28;20200;-65
2021/06/24 05:10:40;;;;;;;0.70;0.70;;;;;;;;;;5118506;28;20258;-65
2021/06/24 05:13:08;;;;;;;1.40;1.30;;;;;;;;;;5114409;28;20223;-65
2021/06/24 05:15:36;;;;;;;10.80;1.60;;;;;;;;;;5118413;28;20200;-65
2021/06/24 05:18:04;;;;;;;0.80;0.80;;;;;;;;;;5118710;28;20597;-65
2021/06/24 05:20:31;;;;;;;0.80;0.80;;;;;;;;;;5118067;28;20201;-65
2021/06/24 05:22:59;;;;;;;1.00;0.80;;;;;;;;;;5114763;28;20259;-65
2021/06/24 05:25:28;;;;;;;0.57;0.57;;;;;;;;;;5118022;28;20201;-67
2021/06/24 05:27:57;;;;;;;0.93;0.70;;;;;;;;;;5117631;28;20232;-66
2021/06/24 05:30:25;;;;;;;1.63;0.80;;;;;;;;;;5118324;28;20205;-68
2021/06/24 05:32:52;;;;;;;1.40;0.90;;;;;;;;;;5121924;28;20957;-67
2021/06/24 05:35:20;;;;;;;2.10;0.70;;;;;;;;;;5121797;28;20250;-66
2021/06/24 05:37:48;;;;;;;3.30;1.27;;;;;;;;;;5121855;28;20201;-66
2021/06/24 05:40:16;;;;;;;0.97;0.70;;;;;;;;;;5121538;28;20236;-66
2021/06/24 05:42:45;;;;;;;1.10;0.60;;;;;;;;;;5117437;28;20220;-70
2021/06/24 05:45:13;;;;;;;207.00;114.33;;;;;;;;;;5117863;28;20205;-65
2021/06/24 05:47:41;;;;;;;12.67;9.23;;;;;;;;;;5121516;28;20562;-65
2021/06/24 05:50:09;;;;;;;2.37;1.47;;;;;;;;;;5121285;28;20197;-68
2021/06/24 05:52:37;;;;;;;8.00;1.40;;;;;;;;;;5121013;28;20220;-67
2021/06/24 05:55:06;;;;;;;0.90;0.90;;;;;;;;;;5118915;28;20201;-68
2021/06/24 05:57:33;;;;;;;2.73;0.87;;;;;;;;;;5110094;28;20204;-68
2021/06/24 06:00:04;;;;;;;1.73;1.00;;;;;;;;;;5120995;28;20205;-69
2021/06/24 06:02:32;;;;;;;1.53;1.03;;;;;;;;;;5121173;28;20274;-69
2021/06/24 06:04:59;;;;;;;3.30;1.00;;;;;;;;;;5121129;28;20227;-70
2021/06/24 06:07:27;;;;;;;1.23;1.00;;;;;;;;;;5119467;28;20213;-69
2021/06/24 06:09:55;;;;;;;3.83;1.17;;;;;;;;;;5120919;28;20208;-69
2021/06/24 06:12:23;;;;;;;1.37;1.27;;;;;;;;;;5113086;28;20692;-70
2021/06/24 06:14:50;;;;;;;1.60;1.50;;;;;;;;;;5118831;28;20652;-69
2021/06/24 06:17:19;;;;;;;1.10;1.00;;;;;;;;;;5121093;28;20227;-69
2021/06/24 06:19:47;;;;;;;2.50;1.10;;;;;;;;;;5121043;28;20212;-69
2021/06/24 06:22:15;;;;;;;1.47;0.80;;;;;;;;;;5120867;28;20593;-70
2021/06/24 06:24:44;;;;;;;3.07;1.60;;;;;;;;;;5120980;28;20229;-70
2021/06/24 06:27:12;;;;;;;3.20;1.40;;;;;;;;;;5120706;28;20200;-69
2021/06/24 06:29:39;;;;;;;2.80;1.20;;;;;;;;;;5120930;28;20205;-69
2021/06/24 06:32:07;;;;;;;3.07;1.57;;;;;;;;;;5120537;28;20277;-70
2021/06/24 06:34:37;;;;;;;1.40;1.10;;;;;;;;;;5120752;28;20205;-69
2021/06/24 06:37:04;;;;;;;2.13;1.47;;;;;;;;;;5120379;28;20240;-68
2021/06/24 06:39:32;;;;;;;2.20;1.40;;;;;;;;;;5120835;28;20569;-68
2021/06/24 06:42:00;;;;;;;1.90;1.17;;;;;;;;;;5118973;28;20225;-68
2021/06/24 06:44:28;;;;;;;2.43;1.90;;;;;;;;;;5120298;28;20233;-68
2021/06/24 06:46:55;;;;;;;1.50;1.40;;;;;;;;;;5120843;28;20208;-68
2021/06/24 06:49:23;;;;;;;10.53;1.70;;;;;;;;;;5120772;28;20250;-68
2021/06/24 06:51:52;;;;;;;5.00;1.30;;;;;;;;;;5120854;28;20231;-68
2021/06/24 06:54:20;;;;;;;4.37;1.80;;;;;;;;;;5120792;28;20240;-68
2021/06/24 06:56:48;;;;;;;2.80;1.83;;;;;;;;;;5106733;28;20254;-68
2021/06/24 06:59:16;;;;;;;2.30;1.27;;;;;;;;;;5120280;28;20209;-68
2021/06/24 07:01:43;;;;;;;3.37;2.00;;;;;;;;;;5120210;28;20225;-65
2021/06/24 07:04:11;;;;;;;2.00;1.80;;;;;;;;;;5120379;28;20315;-67
2021/06/24 07:06:39;;;;;;;1.60;1.50;;;;;;;;;;5120112;28;20212;-65
2021/06/24 07:09:08;;;;;;;1.63;1.33;;;;;;;;;;5119870;28;20309;-66
2021/06/24 07:11:35;;;;;;;1.67;1.57;;;;;;;;;;5118492;28;20229;-65
2021/06/24 07:14:03;;;;;;;1.57;1.17;;;;;;;;;;5114676;28;20204;-65
2021/06/24 07:16:31;;;;;;;3.03;1.00;;;;;;;;;;5120259;28;20204;-65
2021/06/24 07:18:59;;;;;;;1.90;1.27;;;;;;;;;;5120490;28;20208;-66
2021/06/24 07:21:26;;;;;;;1.00;1.00;;;;;;;;;;5120351;28;20232;-65
2021/06/24 07:23:54;;;;;;;1.70;1.10;;;;;;;;;;5121154;28;20351;-65
2021/06/24 07:26:23;;;;;;;2.47;1.57;;;;;;;;;;5120206;28;20205;-66
2021/06/24 07:28:51;;;;;;;2.33;1.30;;;;;;;;;;5119694;28;20680;-66
2021/06/24 07:31:19;;;;;;;1.20;0.93;;;;;;;;;;5120062;28;20224;-66
2021/06/24 07:33:47;;;;;;;2.10;1.33;;;;;;;;;;5120291;28;20292;-66
2021/06/24 07:36:15;;;;;;;4.90;1.53;;;;;;;;;;5119463;28;20270;-66
2021/06/24 07:38:43;;;;;;;2.03;1.30;;;;;;;;;;5119571;28;20235;-66
2021/06/24 07:41:11;;;;;;;2.30;2.10;;;;;;;;;;5119459;28;20200;-66
2021/06/24 07:43:40;;;;;;;4.13;1.83;;;;;;;;;;5119577;28;20712;-66
2021/06/24 07:46:07;;;;;;;1.73;1.07;;;;;;;;;;5118913;28;20225;-65
2021/06/24 07:48:35;;;;;;;1.40;1.37;;;;;;;;;;5118852;28;20201;-65
2021/06/24 07:51:03;;;;;;;2.47;1.30;;;;;;;;;;5119527;28;20208;-66
2021/06/24 07:53:32;;;;;;;1.90;1.80;;;;;;;;;;5118720;28;20231;-65
2021/06/24 07:55:59;;;;;;;2.00;1.60;;;;;;;;;;5113875;28;20197;-65
2021/06/24 07:58:27;;;;;;;2.57;0.90;;;;;;;;;;5118497;28;20209;-65
2021/06/24 08:00:58;;;;;;;1.43;1.10;;;;;;;;;;5118637;28;20241;-65
2021/06/24 08:03:29;;;;;;;1.60;1.00;;;;;;;;;;5118789;28;20627;-66
2021/06/24 08:05:57;;;;;;;2.13;1.07;;;;;;;;;;5118694;28;20256;-66
2021/06/24 08:08:24;;;;;;;1.77;1.17;;;;;;;;;;5118690;28;20203;-65
2021/06/24 08:10:52;;;;;;;2.67;0.90;;;;;;;;;;5118561;28;20834;-67
2021/06/24 08:13:20;;;;;;;3.43;1.97;;;;;;;;;;5117975;28;20208;-67
2021/06/24 08:15:48;;;;;;;1.37;1.10;;;;;;;;;;5118299;28;20267;-67
2021/06/24 08:18:17;;;;;;;1.63;1.20;;;;;;;;;;5118440;28;20212;-67
2021/06/24 08:20:45;;;;;;;2.13;0.90;;;;;;;;;;5118042;28;20206;-67
2021/06/24 08:23:13;;;;;;;0.87;0.87;;;;;;;;;;5118482;28;20258;-67
2021/06/24 08:25:41;;;;;;;0.63;0.50;;;;;;;;;;5118291;28;20301;-67
2021/06/24 08:28:08;;;;;;;0.57;0.57;;;;;;;;;;5118066;28;20262;-67
2021/06/24 08:30:38;;;;;;;0.60;0.60;;;;;;;;;;5118533;28;20289;-68
2021/06/24 08:33:06;;;;;;;0.83;0.83;;;;;;;;;;5118787;28;20229;-68
2021/06/24 08:35:35;;;;;;;0.80;0.80;;;;;;;;;;5118468;28;20222;-68
2021/06/24 08:38:02;;;;;;;0.70;0.70;;;;;;;;;;5077706;28;20211;-68
2021/06/24 08:40:30;;;;;;;0.77;0.70;;;;;;;;;;5077708;28;20260;-68
2021/06/24 08:42:58;;;;;;;1.40;0.50;;;;;;;;;;5078193;28;20222;-70
2021/06/24 08:45:26;;;;;;;0.80;0.73;;;;;;;;;;5077564;28;20284;-71
2021/06/24 08:47:57;;;;;;;0.70;0.70;;;;;;;;;;5077748;28;20210;-70
2021/06/24 08:50:24;;;;;;;2.40;0.83;;;;;;;;;;5077930;28;20203;-71
2021/06/24 08:52:56;;;;;;;2.33;0.60;;;;;;;;;;5077757;28;20230;-70
2021/06/24 08:55:35;;;;;;;0.70;0.70;;;;;;;;;;5077660;28;20207;-68
2021/06/24 08:58:03;;;;;;;0.50;0.50;;;;;;;;;;5074963;28;20220;-71
2021/06/24 09:00:31;;;;;;;1.60;0.70;;;;;;;;;;5067347;28;20774;-70
2021/06/24 09:03:13;;;;;;;0.93;0.70;;;;;;;;;;5072986;28;20220;-70
2021/06/24 09:05:47;;;;;;;0.63;0.50;;;;;;;;;;5076693;28;20227;-71
2021/06/24 09:08:23;;;;;;;0.20;0.20;;;;;;;;;;5077794;28;20256;-70
2021/06/24 09:11:05;;;;;;;3.23;0.70;;;;;;;;;;5077717;28;20259;-68
2021/06/24 09:13:34;;;;;;;0.83;0.80;;;;;;;;;;5077031;28;20206;-67
2021/06/24 09:16:05;;;;;;;0.80;0.80;;;;;;;;;;5077444;28;20206;-67
2021/06/24 09:18:33;;;;;;;1.10;0.50;;;;;;;;;;5077645;28;20203;-66
2021/06/24 09:21:17;;;;;;;0.40;0.40;;;;;;;;;;5077734;28;20233;-66
2021/06/24 09:23:47;;;;;;;0.43;0.43;;;;;;;;;;5077576;28;20561;-67
2021/06/24 09:26:15;;;;;;;0.33;0.33;;;;;;;;;;5077347;28;20692;-67
2021/06/24 09:28:43;;;;;;;1.10;0.30;;;;;;;;;;5077408;28;20608;-67
2021/06/24 09:31:21;;;;;;;0.37;0.20;;;;;;;;;;5077658;28;20242;-69
2021/06/24 09:33:48;;;;;;;0.30;0.30;;;;;;;;;;5077492;28;20650;-66
2021/06/24 09:36:31;;;;;;;1.07;0.43;;;;;;;;;;5089173;28;20337;-69
2021/06/24 09:39:01;;;;;;;1.93;0.70;;;;;;;;;;5106316;28;20210;-66
2021/06/24 09:41:28;;;;;;;0.53;0.40;;;;;;;;;;5117452;28;20227;-67
2021/06/24 09:43:56;;;;;;;1.10;0.87;;;;;;;;;;5117915;28;20210;-68
2021/06/24 09:46:26;;;;;;;1.03;0.70;;;;;;;;;;5118285;28;20238;-67
2021/06/24 09:48:56;;;;;;;3.63;0.50;;;;;;;;;;5118106;28;20201;-67
2021/06/24 09:51:24;;;;;;;2.53;0.60;;;;;;;;;;5117711;28;20235;-67
2021/06/24 09:53:54;;;;;;;0.97;0.97;;;;;;;;;;5120096;28;20624;-66
2021/06/24 09:56:26;;;;;;;2.00;0.80;;;;;;;;;;5117780;28;20199;-67
2021/06/24 09:58:55;;;;;;;0.70;0.70;;;;;;;;;;5117814;28;20219;-67
2021/06/24 10:01:33;;;;;;;1.13;0.53;;;;;;;;;;5117610;28;20227;-67
2021/06/24 10:04:02;;;;;;;0.90;0.63;;;;;;;;;;5118208;28;20229;-66
2021/06/24 10:06:29;;;;;;;1.37;0.60;;;;;;;;;;5118058;28;20257;-66
2021/06/24 10:08:58;;;;;;;2.20;0.67;;;;;;;;;;5117884;28;20205;-68
2021/06/24 10:11:27;;;;;;;0.93;0.50;;;;;;;;;;5117179;28;20237;-68
2021/06/24 10:13:55;;;;;;;0.40;0.40;;;;;;;;;;5117798;28;20209;-68
2021/06/24 10:16:23;;;;;;;1.30;0.30;;;;;;;;;;5118340;28;20223;-68
2021/06/24 10:18:51;;;;;;;0.40;0.40;;;;;;;;;;5121335;28;20205;-68
2021/06/24 10:21:19;;;;;;;0.40;0.40;;;;;;;;;;5121582;28;20236;-68
2021/06/24 10:23:49;;;;;;;1.43;0.53;;;;;;;;;;5121449;28;20204;-65
2021/06/24 10:26:18;;;;;;;1.70;0.70;;;;;;;;;;5121069;28;20255;-65
2021/06/24 10:28:47;;;;;;;1.23;0.70;;;;;;;;;;5120676;28;20226;-65
2021/06/24 10:31:33;;;;;;;1.67;0.70;;;;;;;;;;5112681;28;20225;-65
2021/06/24 10:34:03;;;;;;;0.63;0.43;;;;;;;;;;5112225;28;20200;-65
2021/06/24 10:36:32;;;;;;;1.53;0.60;;;;;;;;;;5114219;28;20274;-65
2021/06/24 10:39:01;;;;;;;2.73;0.60;;;;;;;;;;5112107;28;20255;-65
2021/06/24 10:41:49;;;;;;;1.10;0.77;;;;;;;;;;5111587;28;20226;-65
2021/06/24 10:44:43;;;;;;;1.17;0.70;;;;;;;;;;5111418;28;20289;-65
2021/06/24 10:47:11;;;;;;;2.33;0.90;;;;;;;;;;5115215;28;20221;-65
2021/06/24 10:49:39;;;;;;;1.07;0.70;;;;;;;;;;5120238;28;20209;-66
2021/06/24 10:52:16;;;;;;;1.77;0.80;;;;;;;;;;5120609;28;20692;-66
2021/06/24 10:54:44;;;;;;;1.83;1.03;;;;;;;;;;5120176;28;20613;-67
2021/06/24 10:57:26;;;;;;;1.33;0.77;;;;;;;;;;5109710;28;20254;-65
2021/06/24 10:59:55;;;;;;;0.80;0.80;;;;;;;;;;5106532;28;20207;-65
2021/06/24 11:02:23;;;;;;;0.60;0.60;;;;;;;;;;5120074;28;20718;-66
2021/06/24 11:04:51;;;;;;;0.40;0.40;;;;;;;;;;5120677;28;20205;-65
2021/06/24 11:07:32;;;;;;;0.70;0.70;;;;;;;;;;5120075;28;20227;-66
2021/06/24 11:10:13;;;;;;;3.80;0.80;;;;;;;;;;5119352;28;20216;-66
2021/06/24 11:12:57;;;;;;;0.43;0.33;;;;;;;;;;5114392;28;20225;-66
2021/06/24 11:15:45;;;;;;;0.73;0.53;;;;;;;;;;5120010;28;20208;-65
2021/06/24 11:18:31;;;;;;;1.50;0.80;;;;;;;;;;5120462;28;20205;-66
2021/06/24 11:21:01;;;;;;;1.50;0.60;;;;;;;;;;5118962;28;20238;-66
2021/06/24 11:23:30;;;;;;;1.13;0.70;;;;;;;;;;5120001;28;20213;-66
2021/06/24 11:26:03;;;;;;;0.60;0.60;;;;;;;;;;5119671;28;20208;-66
2021/06/24 11:28:38;;;;;;;0.87;0.77;;;;;;;;;;5119180;28;20251;-65
2021/06/24 11:31:07;;;;;;;0.80;0.80;;;;;;;;;;5119969;28;20254;-66
2021/06/24 11:33:40;;;;;;;2.00;0.70;;;;;;;;;;5119990;28;20259;-65
2021/06/24 11:36:12;;;;;;;2.53;0.90;;;;;;;;;;5119846;28;20712;-66
2021/06/24 11:38:44;;;;;;;0.50;0.50;;;;;;;;;;5119732;28;20652;-66
2021/06/24 11:41:12;;;;;;;0.70;0.70;;;;;;;;;;5119468;28;20644;-65
2021/06/24 11:43:40;;;;;;;1.20;0.77;;;;;;;;;;5119620;28;20201;-66
2021/06/24 11:46:23;;;;;;;0.77;0.70;;;;;;;;;;5119395;28;20201;-65
2021/06/24 11:48:54;;;;;;;0.80;0.80;;;;;;;;;;5119770;28;20201;-66
2021/06/24 12:05:21;;;;;;;0.47;0.47;;;;;;;;;;5119530;28;20231;-66
2021/06/24 12:07:50;;;;;;;0.67;0.67;;;;;;;;;;5118076;28;20224;-66
2021/06/24 12:10:23;;;;;;;2.20;0.40;;;;;;;;;;5119411;28;20210;-66
2021/06/24 12:12:51;;;;;;;0.60;0.60;;;;;;;;;;5106427;28;20226;-67
2021/06/24 12:15:19;;;;;;;0.90;0.90;;;;;;;;;;5113725;28;20197;-67
2021/06/24 12:17:47;;;;;;;1.30;0.90;;;;;;;;;;5110139;28;20199;-67
2021/06/24 12:20:19;;;;;;;0.67;0.67;;;;;;;;;;5110242;28;20242;-66
2021/06/24 12:22:54;;;;;;;1.33;0.90;;;;;;;;;;5109728;28;20260;-66
2021/06/24 12:25:24;;;;;;;0.80;0.80;;;;;;;;;;5110659;28;20551;-65
2021/06/24 12:27:54;;;;;;;1.07;0.80;;;;;;;;;;5109813;28;20215;-65
2021/06/24 12:30:23;;;;;;;2.67;0.73;;;;;;;;;;5112115;28;20252;-65
2021/06/24 12:32:53;;;;;;;2.40;0.50;;;;;;;;;;5111308;28;20223;-65
2021/06/24 12:35:22;;;;;;;2.07;1.10;;;;;;;;;;5114374;28;20257;-65
2021/06/24 12:37:50;;;;;;;0.70;0.50;;;;;;;;;;5109717;28;20228;-65
2021/06/24 12:40:19;;;;;;;0.83;0.60;;;;;;;;;;5111247;28;20211;-66
2021/06/24 12:42:49;;;;;;;1.60;0.77;;;;;;;;;;5110008;28;20693;-65
2021/06/24 12:45:39;;;;;;;0.40;0.40;;;;;;;;;;5109625;28;20721;-67
2021/06/24 12:48:23;;;;;;;1.13;0.60;;;;;;;;;;5110492;28;20269;-68
2021/06/24 12:50:51;;;;;;;0.77;0.77;;;;;;;;;;5107658;28;20551;-68
2021/06/24 12:53:27;;;;;;;3.17;0.87;;;;;;;;;;5109582;28;20696;-69
2021/06/24 12:55:55;;;;;;;2.13;1.20;;;;;;;;;;5109516;28;20655;-67
2021/06/24 12:58:33;;;;;;;0.93;0.90;;;;;;;;;;5109256;28;20563;-67
2021/06/24 13:01:09;;;;;;;0.70;0.70;;;;;;;;;;5104150;28;20211;-68
2021/06/24 13:03:38;;;;;;;0.80;0.80;;;;;;;;;;5117822;28;20210;-68
2021/06/24 13:06:10;;;;;;;0.63;0.63;;;;;;;;;;5117006;28;20203;-69
2021/06/24 13:08:37;;;;;;;0.70;0.63;;;;;;;;;;5117551;28;20307;-68
2021/06/24 13:11:13;;;;;;;0.80;0.80;;;;;;;;;;5117561;28;20648;-68
2021/06/24 13:13:42;;;;;;;0.80;0.80;;;;;;;;;;5116585;28;20202;-68
2021/06/24 13:16:27;;;;;;;1.23;1.17;;;;;;;;;;5118118;28;20257;-71
2021/06/24 13:18:55;;;;;;;1.63;0.90;;;;;;;;;;5117612;28;20209;-69
2021/06/24 13:21:23;;;;;;;1.17;0.90;;;;;;;;;;5117628;28;20248;-68
2021/06/24 13:23:51;;;;;;;2.43;0.67;;;;;;;;;;5117739;28;20211;-66
2021/06/24 13:26:20;;;;;;;0.70;0.70;;;;;;;;;;5117523;28;20208;-68
2021/06/24 13:28:57;;;;;;;0.63;0.63;;;;;;;;;;5117916;28;20231;-69
2021/06/24 13:31:26;;;;;;;1.13;0.60;;;;;;;;;;5117465;28;20224;-68
2021/06/24 13:33:59;;;;;;;0.90;0.70;;;;;;;;;;5117603;28;20219;-70
2021/06/24 13:36:28;;;;;;;0.60;0.60;;;;;;;;;;5117323;28;20239;-68
2021/06/24 13:38:57;;;;;;;1.47;1.10;;;;;;;;;;5117522;28;20232;-69
2021/06/24 13:41:28;;;;;;;1.23;0.83;;;;;;;;;;5116969;28;20223;-69
2021/06/24 13:44:07;;;;;;;1.27;0.77;;;;;;;;;;5117572;28;20269;-70
2021/06/24 13:46:35;;;;;;;1.07;0.50;;;;;;;;;;5117562;28;20571;-68
2021/06/24 13:49:03;;;;;;;1.30;1.07;;;;;;;;;;5117614;28;20239;-69
2021/06/24 13:51:31;;;;;;;2.40;0.67;;;;;;;;;;5118106;28;20697;-69
2021/06/24 13:54:02;;;;;;;1.10;0.90;;;;;;;;;;5121485;28;20211;-70
2021/06/24 13:56:30;;;;;;;0.83;0.83;;;;;;;;;;5121053;28;20211;-68
2021/06/24 13:58:58;;;;;;;1.00;1.00;;;;;;;;;;5121478;28;20563;-70
2021/06/24 14:01:28;;;;;;;1.17;1.17;;;;;;;;;;5121145;28;20707;-69
2021/06/24 14:03:56;;;;;;;1.00;1.00;;;;;;;;;;5121107;28;20207;-70
2021/06/24 14:06:25;;;;;;;1.83;1.27;;;;;;;;;;5121035;28;20288;-68
2021/06/24 14:08:53;;;;;;;1.97;1.50;;;;;;;;;;5120900;28;20582;-69
2021/06/24 14:11:20;;;;;;;10.37;6.30;;;;;;;;;;5120952;28;20228;-68
2021/06/24 14:13:49;;;;;;;1.60;1.50;;;;;;;;;;5113024;28;20671;-68
2021/06/24 14:16:18;;;;;;;1.73;1.63;;;;;;;;;;5120863;28;20214;-68
2021/06/24 14:18:48;;;;;;;1.90;1.70;;;;;;;;;;5120981;28;20544;-68
2021/06/24 14:21:18;;;;;;;2.37;1.73;;;;;;;;;;5120847;28;20276;-68
2021/06/24 14:23:45;;;;;;;3.43;1.70;;;;;;;;;;5120888;28;20654;-69
2021/06/24 14:26:13;;;;;;;2.27;2.03;;;;;;;;;;5106763;28;20207;-69
2021/06/24 14:28:41;;;;;;;1.90;1.80;;;;;;;;;;5120106;28;20249;-69
2021/06/24 14:31:09;;;;;;;1.97;1.83;;;;;;;;;;5120496;28;20228;-66
2021/06/24 14:33:37;;;;;;;1.93;1.80;;;;;;;;;;5120588;28;20212;-67
2021/06/24 14:36:07;;;;;;;1.83;1.53;;;;;;;;;;5120283;28;20239;-66
2021/06/24 14:38:35;;;;;;;1.80;1.60;;;;;;;;;;5120499;28;20280;-67
2021/06/24 14:41:03;;;;;;;1.47;1.40;;;;;;;;;;5119978;28;20732;-68
2021/06/24 14:43:32;;;;;;;1.30;1.20;;;;;;;;;;5119356;28;20225;-67
2021/06/24 14:46:03;;;;;;;1.50;1.40;;;;;;;;;;5106396;28;20205;-69
2021/06/24 14:48:31;;;;;;;1.57;1.40;;;;;;;;;;5120332;28;20260;-67
2021/06/24 14:50:59;;;;;;;1.90;0.93;;;;;;;;;;5120374;28;20638;-69
2021/06/24 14:53:28;;;;;;;1.23;1.23;;;;;;;;;;5120476;28;20204;-68
2021/06/24 14:55:56;;;;;;;1.30;1.20;;;;;;;;;;5120078;28;20575;-68
2021/06/24 14:58:24;;;;;;;1.40;1.30;;;;;;;;;;5119930;28;20252;-69
2021/06/24 15:00:52;;;;;;;1.17;1.17;;;;;;;;;;5119792;28;20278;-69
2021/06/24 15:03:20;;;;;;;1.50;1.40;;;;;;;;;;5118931;28;20241;-69
2021/06/24 15:05:48;;;;;;;1.80;1.70;;;;;;;;;;5119776;28;20205;-67
2021/06/24 15:08:15;;;;;;;1.90;1.63;;;;;;;;;;5119875;28;20257;-67
2021/06/24 15:10:45;;;;;;;3.10;1.70;;;;;;;;;;5119971;28;20219;-67